Time;durP1;ratioP1;P1;durP2;ratioP2;P2;SDS_P1;SDS_P2;PMS_P1;PMS_P2;Temp;Humidity;BMP_temperature;BMP_pressure;BME280_temperature;BME280_humidity;BME280_pressure;Samples;Min_cycle;Max_cycle;Signal;HPM_P1;HPM_P2
2021/06/23 00:01:23;;;;;;;26.00;10.25;;;;;;;26.73;64.71;99710.16;5094039;28;20122;-75
2021/06/23 00:03:52;;;;;;;25.50;10.27;;;;;;;26.75;64.82;99713.53;5094176;28;20067;-75
2021/06/23 00:06:20;;;;;;;19.45;10.38;;;;;;;26.72;64.54;99713.91;5093777;28;20074;-75
2021/06/23 00:08:49;;;;;;;25.27;11.18;;;;;;;26.53;65.59;99712.00;5093769;28;20044;-81
2021/06/23 00:11:18;;;;;;;19.58;11.15;;;;;;;26.45;65.88;99712.25;5093354;28;20051;-75
2021/06/23 00:13:50;;;;;;;24.23;10.43;;;;;;;26.43;66.13;99708.84;5094975;28;20128;-75
2021/06/23 00:16:18;;;;;;;24.20;10.40;;;;;;;26.34;66.82;99712.78;5100554;28;20055;-76
2021/06/23 00:18:48;;;;;;;20.02;10.68;;;;;;;26.20;67.16;99710.03;5098878;28;20063;-76
2021/06/23 00:21:16;;;;;;;24.88;10.63;;;;;;;26.13;67.78;99713.81;5094103;28;20048;-76
2021/06/23 00:23:45;;;;;;;23.45;11.25;;;;;;;26.04;68.07;99713.13;5093411;28;20048;-78
2021/06/23 00:26:14;;;;;;;19.35;10.93;;;;;;;25.96;68.43;99724.25;5093346;28;20044;-77
2021/06/23 00:28:42;;;;;;;19.95;11.07;;;;;;;25.93;69.09;99725.50;5093349;28;20043;-78
2021/06/23 00:31:11;;;;;;;23.25;10.68;;;;;;;26.08;68.28;99730.81;5093046;28;20077;-77
2021/06/23 00:33:40;;;;;;;23.08;11.52;;;;;;;26.28;67.45;99735.50;5093368;28;20051;-76
2021/06/23 00:36:10;;;;;;;26.58;11.40;;;;;;;26.27;67.49;99742.03;5093362;28;20126;-81
2021/06/23 00:38:39;;;;;;;25.15;12.10;;;;;;;26.19;68.39;99741.16;5075174;28;20140;-75
2021/06/23 00:41:08;;;;;;;27.25;11.68;;;;;;;26.27;67.64;99734.66;5093182;28;20044;-75
2021/06/23 00:43:36;;;;;;;19.33;11.05;;;;;;;26.22;67.74;99735.28;5093177;28;20075;-76
2021/06/23 00:46:05;;;;;;;23.63;11.70;;;;;;;26.36;67.10;99736.16;5093185;28;20040;-75
2021/06/23 00:48:57;;;;;;;23.85;10.98;;;;;;;26.12;68.20;99739.44;5093265;28;20436;-74
2021/06/23 00:51:27;;;;;;;20.88;11.70;;;;;;;26.03;68.64;99736.06;5093206;28;20082;-74
2021/06/23 00:53:56;;;;;;;21.05;11.10;;;;;;;26.16;67.86;99732.53;5093260;28;20123;-78
2021/06/23 00:56:30;;;;;;;23.80;11.32;;;;;;;26.09;68.56;99743.44;5092978;28;20066;-75
2021/06/23 00:58:59;;;;;;;23.13;12.38;;;;;;;26.03;68.93;99746.97;5092699;28;20040;-75
2021/06/23 01:01:29;;;;;;;20.55;12.43;;;;;;;25.72;70.14;99750.22;5092882;28;20090;-75
2021/06/23 01:03:58;;;;;;;26.67;12.25;;;;;;;25.64;70.70;99748.44;5092917;28;20055;-75
2021/06/23 01:06:29;;;;;;;21.63;11.50;;;;;;;25.59;70.96;99748.22;5092703;28;20052;-75
2021/06/23 01:09:17;;;;;;;25.95;13.13;;;;;;;25.57;70.93;99753.03;5092713;28;20052;-83
2021/06/23 01:12:01;;;;;;;23.92;12.38;;;;;;;25.56;71.16;99751.34;5093181;28;20042;-82
2021/06/23 01:14:33;;;;;;;23.60;12.73;;;;;;;25.52;71.52;99750.06;5093052;28;20044;-83
2021/06/23 01:17:04;;;;;;;23.05;12.75;;;;;;;25.38;72.40;99754.63;5092521;28;20474;-81
2021/06/23 01:19:33;;;;;;;24.83;12.85;;;;;;;25.24;72.93;99754.72;5093024;28;20089;-82
2021/06/23 01:22:03;;;;;;;23.65;11.90;;;;;;;25.31;72.75;99747.44;5092549;28;20482;-81
2021/06/23 01:24:32;;;;;;;24.45;12.50;;;;;;;25.13;73.63;99739.75;5093339;28;20440;-80
2021/06/23 01:27:00;;;;;;;26.23;13.10;;;;;;;25.09;73.57;99749.34;5092569;28;20482;-81
2021/06/23 01:29:29;;;;;;;25.85;13.30;;;;;;;25.13;73.41;99744.34;5093147;28;20043;-80
2021/06/23 01:31:59;;;;;;;29.00;13.88;;;;;;;24.95;74.15;99742.91;5092564;28;20070;-78
2021/06/23 01:34:27;;;;;;;28.67;12.70;;;;;;;25.01;74.10;99744.03;5092841;28;20044;-81
2021/06/23 01:36:56;;;;;;;29.45;12.85;;;;;;;24.98;74.36;99749.84;5092633;28;20105;-80
2021/06/23 01:39:25;;;;;;;26.75;13.98;;;;;;;24.83;74.96;99748.06;5092822;28;20436;-80
2021/06/23 01:41:54;;;;;;;24.00;12.60;;;;;;;24.88;74.58;99747.47;5093400;28;20474;-81
2021/06/23 01:44:23;;;;;;;27.73;13.40;;;;;;;24.94;74.50;99741.25;5096491;28;20511;-80
2021/06/23 01:46:51;;;;;;;24.10;12.55;;;;;;;24.94;74.50;99748.56;5096513;28;20040;-80
2021/06/23 01:49:22;;;;;;;21.63;12.55;;;;;;;24.87;74.92;99753.97;5096434;28;20051;-80
2021/06/23 01:51:50;;;;;;;27.73;13.35;;;;;;;24.77;75.21;99753.47;5096669;28;20044;-81
2021/06/23 01:54:18;;;;;;;24.38;12.93;;;;;;;24.69;75.44;99757.16;5096080;28;20051;-79
2021/06/23 01:56:48;;;;;;;21.85;12.57;;;;;;;24.65;75.41;99757.75;5096234;28;20200;-75
2021/06/23 01:59:17;;;;;;;23.42;12.75;;;;;;;24.65;75.31;99768.66;5095986;28;20036;-81
2021/06/23 02:01:58;;;;;;;25.27;13.48;;;;;;;24.54;75.62;99768.16;5096113;28;20068;-81
2021/06/23 02:04:42;;;;;;;25.13;13.07;;;;;;;24.37;76.54;99783.06;5096274;28;20040;-81
2021/06/23 02:07:23;;;;;;;26.73;13.48;;;;;;;24.28;77.13;99785.00;5095726;28;20090;-81
2021/06/23 02:10:13;;;;;;;23.50;13.68;;;;;;;24.37;76.98;99788.50;5096411;28;20040;-77
2021/06/23 02:13:26;;;;;;;32.58;14.13;;;;;;;24.34;77.19;99783.44;5095922;28;20569;-76
2021/06/23 02:15:57;;;;;;;30.00;14.13;;;;;;;24.30;77.21;99782.09;5096317;28;20058;-77
2021/06/23 02:18:28;;;;;;;30.05;13.50;;;;;;;24.25;77.35;99784.56;5095491;28;20051;-76
2021/06/23 02:20:59;;;;;;;27.90;13.82;;;;;;;24.27;77.62;99779.75;5096259;28;20375;-76
2021/06/23 02:23:27;;;;;;;30.58;14.90;;;;;;;24.58;75.81;99782.22;5077827;28;20127;-77
2021/06/23 02:25:57;;;;;;;29.35;13.63;;;;;;;24.39;76.71;99783.69;5095818;28;20068;-76
2021/06/23 02:28:28;;;;;;;25.98;13.00;;;;;;;24.34;76.98;99780.72;5095779;28;20090;-76
2021/06/23 02:30:57;;;;;;;26.52;13.65;;;;;;;24.33;77.17;99786.38;5096094;28;20107;-76
2021/06/23 02:33:26;;;;;;;25.08;13.75;;;;;;;24.23;77.35;99786.66;5095552;28;20456;-77
2021/06/23 02:35:56;;;;;;;25.55;13.82;;;;;;;24.17;77.99;99782.78;5095512;28;20481;-78
2021/06/23 02:38:29;;;;;;;27.13;13.52;;;;;;;24.21;77.94;99769.63;5095583;28;20063;-76
2021/06/23 02:40:58;;;;;;;24.50;14.15;;;;;;;24.30;77.45;99782.09;5095436;28;20059;-75
2021/06/23 02:43:28;;;;;;;29.23;13.95;;;;;;;24.32;77.14;99780.06;5094998;28;20494;-76
2021/06/23 02:45:57;;;;;;;24.10;13.82;;;;;;;24.53;76.02;99790.16;5095205;28;20093;-76
2021/06/23 02:48:26;;;;;;;24.27;12.73;;;;;;;24.62;75.24;99786.28;5094921;28;20044;-74
2021/06/23 02:51:00;;;;;;;23.00;13.25;;;;;;;24.56;75.66;99787.03;5095286;28;20383;-74
2021/06/23 02:53:30;;;;;;;28.58;12.55;;;;;;;24.54;75.58;99779.06;5095137;28;20098;-77
2021/06/23 02:55:59;;;;;;;28.38;13.50;;;;;;;24.49;76.04;99792.41;5095436;28;20055;-79
2021/06/23 02:58:29;;;;;;;23.77;12.25;;;;;;;24.47;75.78;99802.66;5095120;28;20102;-80
2021/06/23 03:00:59;;;;;;;21.38;12.38;;;;;;;24.70;74.35;99804.34;5095085;28;20071;-80
2021/06/23 03:03:27;;;;;;;22.60;12.40;;;;;;;24.61;74.93;99810.97;5095150;28;20505;-77
2021/06/23 03:05:55;;;;;;;26.95;13.00;;;;;;;24.63;74.85;99811.66;5095111;28;20130;-77
2021/06/23 03:08:24;;;;;;;23.48;13.23;;;;;;;24.55;75.13;99818.91;5094902;28;20491;-75
2021/06/23 03:10:52;;;;;;;29.02;13.20;;;;;;;24.52;75.58;99810.28;5095170;28;20490;-77
2021/06/23 03:13:20;;;;;;;28.75;13.88;;;;;;;24.52;75.64;99819.31;5094758;28;20366;-77
2021/06/23 03:15:50;;;;;;;27.65;13.07;;;;;;;24.57;75.39;99812.41;5094787;28;20052;-75
2021/06/23 03:18:19;;;;;;;22.95;12.75;;;;;;;24.78;74.48;99810.53;5094418;28;20044;-76
2021/06/23 03:20:47;;;;;;;26.10;12.20;;;;;;;25.08;72.66;99818.59;5094631;28;20044;-76
2021/06/23 03:23:15;;;;;;;22.65;12.20;;;;;;;25.23;71.87;99822.09;5094300;28;20040;-77
2021/06/23 03:25:44;;;;;;;23.50;13.02;;;;;;;25.39;71.32;99820.97;5094712;28;20119;-76
2021/06/23 03:28:12;;;;;;;30.45;13.23;;;;;;;25.24;71.77;99817.50;5094164;28;20043;-77
2021/06/23 03:30:41;;;;;;;21.38;12.55;;;;;;;25.32;71.32;99829.09;5076357;28;20046;-78
2021/06/23 03:33:11;;;;;;;21.05;12.15;;;;;;;25.58;70.40;99836.66;5094125;28;20490;-77
2021/06/23 03:35:39;;;;;;;22.85;12.63;;;;;;;25.65;69.71;99829.34;5094281;28;20078;-75
2021/06/23 03:38:07;;;;;;;23.83;12.15;;;;;;;25.97;68.62;99838.00;5076190;28;20452;-77
2021/06/23 03:40:35;;;;;;;20.33;11.30;;;;;;;26.42;66.89;99832.94;5094266;28;20101;-75
2021/06/23 03:43:04;;;;;;;21.08;12.23;;;;;;;26.87;65.21;99836.00;5094265;28;20043;-83
2021/06/23 03:45:43;;;;;;;26.95;12.95;;;;;;;26.88;64.48;99837.69;5094002;28;20055;-74
2021/06/23 03:48:12;;;;;;;24.30;12.10;;;;;;;27.24;63.35;99838.19;5093405;28;20093;-75
2021/06/23 03:50:42;;;;;;;22.70;11.93;;;;;;;27.54;62.26;99840.50;5093713;28;20139;-77
2021/06/23 03:53:11;;;;;;;28.38;11.82;;;;;;;28.05;60.17;99845.25;5093913;28;20154;-77
2021/06/23 03:55:39;;;;;;;22.35;10.95;;;;;;;28.52;58.56;99849.53;5093762;28;20044;-76
2021/06/23 03:58:08;;;;;;;22.42;11.48;;;;;;;28.77;57.97;99849.63;5075614;28;20483;-75
2021/06/23 04:00:36;;;;;;;20.50;10.82;;;;;;;28.88;56.52;99848.09;5093786;28;20047;-73
2021/06/23 04:03:05;;;;;;;18.90;10.70;;;;;;;29.17;56.44;99847.47;5093870;28;20537;-75
2021/06/23 04:05:35;;;;;;;22.42;11.20;;;;;;;29.97;53.88;99844.84;5092872;28;20466;-75
2021/06/23 04:08:03;;;;;;;23.77;10.85;;;;;;;30.15;53.55;99844.88;5093698;28;20397;-75
2021/06/23 04:10:31;;;;;;;26.42;11.45;;;;;;;30.00;53.69;99849.88;5093171;28;20040;-75
2021/06/23 04:13:00;;;;;;;21.60;10.93;;;;;;;30.08;53.64;99851.53;5093685;28;20457;-75
2021/06/23 04:15:31;;;;;;;21.33;10.52;;;;;;;30.60;51.45;99855.56;5093245;28;20052;-74
2021/06/23 04:17:59;;;;;;;20.65;10.30;;;;;;;31.05;50.69;99857.88;5093409;28;20104;-78
2021/06/23 04:20:27;;;;;;;21.73;10.27;;;;;;;30.98;50.87;99857.13;5093083;28;20119;-77
2021/06/23 04:22:58;;;;;;;19.92;10.82;;;;;;;30.68;51.25;99865.41;5093235;28;20577;-76
2021/06/23 04:25:26;;;;;;;22.23;10.82;;;;;;;31.12;50.39;99857.78;5074632;28;20052;-75
2021/06/23 04:27:54;;;;;;;21.05;11.15;;;;;;;31.69;48.70;99853.44;5093391;28;20119;-76
2021/06/23 04:30:23;;;;;;;17.92;11.20;;;;;;;31.97;47.95;99850.00;5092833;28;20040;-77
2021/06/23 04:32:52;;;;;;;22.65;12.32;;;;;;;31.63;48.84;99855.25;5093268;28;20039;-79
2021/06/23 04:35:20;;;;;;;22.85;11.77;;;;;;;31.90;47.65;99855.63;5093076;28;20047;-79
2021/06/23 04:37:48;;;;;;;21.33;11.13;;;;;;;32.28;46.77;99861.69;5093143;28;20040;-78
2021/06/23 04:40:18;;;;;;;22.13;11.43;;;;;;;32.61;46.00;99858.25;5092930;28;20123;-77
2021/06/23 04:42:49;;;;;;;22.63;11.75;;;;;;;32.83;45.43;99859.28;5093252;28;20527;-77
2021/06/23 04:45:18;;;;;;;26.23;12.18;;;;;;;32.59;45.92;99864.03;5092946;28;20052;-80
2021/06/23 04:47:46;;;;;;;19.55;11.00;;;;;;;33.38;44.48;99864.13;5093182;28;20048;-76
2021/06/23 04:50:14;;;;;;;24.02;10.98;;;;;;;32.67;45.46;99860.88;5092675;28;20044;-80
2021/06/23 04:52:43;;;;;;;25.92;11.38;;;;;;;32.91;45.38;99866.31;5092896;28;20052;-81
2021/06/23 04:55:16;;;;;;;21.75;10.52;;;;;;;33.05;44.96;99864.09;5092900;28;20378;-77
2021/06/23 04:57:45;;;;;;;19.45;9.75;;;;;;;33.81;42.64;99870.91;5094007;28;20123;-77
2021/06/23 05:00:15;;;;;;;23.90;10.32;;;;;;;33.63;43.52;99871.19;5092324;28;20553;-76
2021/06/23 05:02:43;;;;;;;22.92;10.43;;;;;;;33.38;43.54;99872.44;5092795;28;20046;-75
2021/06/23 05:05:14;;;;;;;21.17;10.13;;;;;;;33.21;43.99;99866.88;5092456;28;20044;-77
2021/06/23 05:07:42;;;;;;;30.08;11.50;;;;;;;33.92;42.70;99861.69;5094290;28;20052;-76
2021/06/23 05:10:11;;;;;;;27.88;11.20;;;;;;;33.63;42.72;99868.41;5092787;28;20044;-77
2021/06/23 05:12:42;;;;;;;21.00;10.85;;;;;;;33.89;42.51;99866.91;5093011;28;20040;-74
2021/06/23 05:15:12;;;;;;;19.98;10.27;;;;;;;34.48;41.54;99864.41;5092436;28;20450;-75
2021/06/23 05:17:41;;;;;;;23.67;9.73;;;;;;;34.48;41.93;99861.66;5094287;28;20040;-80
2021/06/23 05:20:10;;;;;;;19.80;9.07;;;;;;;34.30;41.08;99868.31;5096198;28;20443;-76
2021/06/23 05:22:39;;;;;;;21.95;10.63;;;;;;;33.97;42.55;99869.22;5096834;28;20049;-74
2021/06/23 05:25:08;;;;;;;24.88;9.70;;;;;;;34.30;41.96;99865.53;5078614;28;20059;-74
2021/06/23 05:27:36;;;;;;;21.77;9.88;;;;;;;34.50;41.22;99862.22;5096430;28;20051;-74
2021/06/23 05:30:06;;;;;;;22.13;9.50;;;;;;;34.80;39.89;99870.03;5096521;28;20128;-74
2021/06/23 05:32:36;;;;;;;25.58;9.25;;;;;;;36.12;37.74;99862.88;5096396;28;20040;-73
2021/06/23 05:35:04;;;;;;;22.23;9.88;;;;;;;36.54;36.81;99864.75;5096657;28;20044;-73
2021/06/23 05:37:35;;;;;;;18.90;9.18;;;;;;;35.69;37.98;99873.13;5096020;28;20417;-73
2021/06/23 05:40:04;;;;;;;21.50;9.70;;;;;;;35.61;38.51;99875.56;5078072;28;20465;-74
2021/06/23 05:42:38;;;;;;;21.65;8.93;;;;;;;35.26;38.67;99882.47;5095860;28;20055;-74
2021/06/23 05:45:07;;;;;;;24.13;9.05;;;;;;;35.25;39.83;99887.16;5096454;28;20072;-74
2021/06/23 05:47:38;;;;;;;23.58;9.32;;;;;;;35.08;40.30;99886.44;5077878;28;20048;-74
2021/06/23 05:50:07;;;;;;;22.50;9.70;;;;;;;35.83;38.35;99892.94;5096001;28;20516;-73
2021/06/23 05:52:36;;;;;;;24.13;9.98;;;;;;;36.12;37.69;99893.44;5095710;28;20071;-76
2021/06/23 05:55:05;;;;;;;23.48;9.73;;;;;;;36.20;37.32;99892.91;5095910;28;20070;-76
2021/06/23 05:57:33;;;;;;;21.70;9.05;;;;;;;36.03;37.62;99892.25;5095615;28;20071;-73
2021/06/23 06:00:02;;;;;;;20.42;9.00;;;;;;;36.66;36.29;99887.56;5077662;28;20059;-73
2021/06/23 06:02:30;;;;;;;25.95;9.23;;;;;;;37.47;34.95;99892.50;5095683;28;20040;-74
2021/06/23 06:04:59;;;;;;;25.38;9.73;;;;;;;37.24;35.88;99897.47;5096075;28;20044;-76
2021/06/23 06:07:28;;;;;;;21.80;9.07;;;;;;;37.08;35.79;99903.28;5095504;28;20052;-74
2021/06/23 06:09:56;;;;;;;24.70;9.00;;;;;;;36.71;36.46;99897.88;5096032;28;20055;-75
2021/06/23 06:12:24;;;;;;;22.88;9.30;;;;;;;36.46;36.69;99899.44;5095823;28;20115;-77
2021/06/23 06:14:54;;;;;;;24.63;8.80;;;;;;;36.87;36.33;99907.97;5095667;28;20036;-78
2021/06/23 06:17:25;;;;;;;22.92;8.20;;;;;;;36.87;36.15;99902.41;5095462;28;20036;-77
2021/06/23 06:19:53;;;;;;;21.30;8.43;;;;;;;36.45;35.93;99905.28;5095544;28;20115;-75
2021/06/23 06:22:27;;;;;;;22.58;8.82;;;;;;;37.10;34.88;99909.41;5095269;28;20599;-77
2021/06/23 06:24:55;;;;;;;24.15;8.93;;;;;;;37.54;34.29;99904.19;5095474;28;20071;-77
2021/06/23 06:27:23;;;;;;;19.30;8.52;;;;;;;37.10;34.45;99909.41;5095247;28;20037;-77
2021/06/23 06:29:52;;;;;;;19.75;9.07;;;;;;;36.94;34.76;99909.38;5095132;28;20057;-77
2021/06/23 06:32:20;;;;;;;21.77;9.13;;;;;;;37.27;34.28;99912.78;5094712;28;20067;-77
2021/06/23 06:34:49;;;;;;;22.58;9.82;;;;;;;37.51;34.08;99907.53;5077274;28;20462;-77
2021/06/23 06:37:17;;;;;;;25.83;9.80;;;;;;;37.68;33.93;99910.03;5095095;28;20040;-80
2021/06/23 06:39:46;;;;;;;24.88;9.77;;;;;;;37.69;33.33;99904.19;5095551;28;20044;-77
2021/06/23 06:42:17;;;;;;;27.83;9.55;;;;;;;37.19;34.70;99914.16;5095138;28;20039;-80
2021/06/23 06:44:45;;;;;;;19.20;9.15;;;;;;;36.96;34.83;99918.28;5095335;28;20417;-76
2021/06/23 06:47:14;;;;;;;22.75;9.80;;;;;;;36.79;35.54;99917.66;5094415;28;20040;-77
2021/06/23 06:49:42;;;;;;;27.15;10.27;;;;;;;37.47;34.23;99923.13;5095067;28;20055;-76
2021/06/23 06:52:11;;;;;;;22.20;9.10;;;;;;;37.63;34.07;99921.16;5095335;28;20044;-77
2021/06/23 06:54:39;;;;;;;26.75;9.88;;;;;;;37.49;33.96;99916.16;5094887;28;20051;-77
2021/06/23 06:57:09;;;;;;;20.10;9.07;;;;;;;37.08;34.43;99926.38;5094976;28;20051;-76
2021/06/23 06:59:37;;;;;;;27.52;9.10;;;;;;;37.18;34.02;99925.56;5094771;28;20525;-76
2021/06/23 07:02:06;;;;;;;27.23;9.10;;;;;;;36.57;35.07;99936.44;5095156;28;20482;-76
2021/06/23 07:04:34;;;;;;;24.13;9.32;;;;;;;36.23;35.56;99934.00;5076634;28;20093;-76
2021/06/23 07:07:03;;;;;;;25.60;8.65;;;;;;;35.88;35.97;99929.06;5094651;28;20048;-76
2021/06/23 07:09:31;;;;;;;23.65;9.55;;;;;;;35.52;36.89;99936.25;5094552;28;20044;-76
2021/06/23 07:12:00;;;;;;;21.85;9.40;;;;;;;35.29;36.95;99938.19;5094626;28;20050;-75
2021/06/23 07:14:29;;;;;;;29.77;9.70;;;;;;;35.13;37.77;99941.94;5094365;28;20052;-75
2021/06/23 07:16:58;;;;;;;17.95;8.85;;;;;;;34.93;37.76;99945.28;5094898;28;20097;-75
2021/06/23 07:19:26;;;;;;;28.15;10.05;;;;;;;34.96;37.90;99950.34;5094517;28;20131;-75
2021/06/23 07:21:55;;;;;;;28.80;10.05;;;;;;;34.96;38.50;99949.50;5094613;28;20069;-75
2021/06/23 07:24:23;;;;;;;21.77;9.15;;;;;;;34.84;39.06;99945.97;5094191;28;20036;-75
2021/06/23 07:26:57;;;;;;;25.75;8.98;;;;;;;34.81;38.51;99946.50;5094242;28;20126;-75
2021/06/23 07:29:26;;;;;;;23.50;8.82;;;;;;;34.61;38.38;99944.31;5094310;28;20040;-76
2021/06/23 07:32:00;;;;;;;24.60;9.43;;;;;;;34.64;39.17;99943.78;5094364;28;20036;-76
2021/06/23 07:37:18;;;;;;;23.23;8.52;;;;;;;34.83;38.08;99944.31;5094070;28;20474;-76
2021/06/23 07:39:47;;;;;;;23.02;9.52;;;;;;;34.38;38.89;99942.63;5075478;28;20052;-75
2021/06/23 07:42:15;;;;;;;20.58;9.05;;;;;;;34.45;38.29;99943.28;5094246;28;20043;-75
2021/06/23 07:44:46;;;;;;;21.92;8.75;;;;;;;34.43;38.46;99942.69;5093950;28;20040;-75
2021/06/23 07:47:19;;;;;;;24.88;8.52;;;;;;;34.47;38.58;99934.75;5094352;28;20048;-75
2021/06/23 07:49:50;;;;;;;21.05;8.43;;;;;;;34.38;38.78;99937.06;5093999;28;20085;-75
2021/06/23 07:52:25;;;;;;;26.65;9.00;;;;;;;34.25;38.10;99937.44;5094239;28;20048;-75
2021/06/23 07:55:04;;;;;;;29.65;8.80;;;;;;;33.91;38.80;99945.78;5093801;28;20040;-75
2021/06/23 08:11:32;;;;;;;30.60;9.73;;;;;;;34.47;38.08;99951.34;5093662;28;20047;-76
2021/06/23 08:14:04;;;;;;;23.70;9.73;;;;;;;34.26;38.50;99952.94;5093716;28;20460;-76
2021/06/23 08:16:33;;;;;;;23.25;8.65;;;;;;;34.27;39.39;99946.34;5093313;28;20448;-75
2021/06/23 08:19:04;;;;;;;22.38;8.88;;;;;;;34.26;39.21;99950.16;5093433;28;20048;-76
2021/06/23 08:21:32;;;;;;;27.42;10.18;;;;;;;34.23;38.45;99953.47;5093167;28;20169;-76
2021/06/23 08:24:01;;;;;;;23.90;9.68;;;;;;;34.30;38.30;99952.19;5093431;28;20117;-76
2021/06/23 08:26:29;;;;;;;25.55;10.55;;;;;;;34.34;38.67;99958.88;5093075;28;20036;-76
2021/06/23 08:28:57;;;;;;;26.30;9.85;;;;;;;34.47;38.20;99952.19;5093348;28;20074;-75
2021/06/23 08:31:26;;;;;;;23.30;9.13;;;;;;;34.32;38.00;99954.69;5092897;28;20075;-76
2021/06/23 08:33:59;;;;;;;19.05;8.60;;;;;;;34.01;38.65;99954.25;5093688;28;20040;-76
2021/06/23 08:36:28;;;;;;;27.10;9.30;;;;;;;34.17;38.73;99948.97;5093263;28;20482;-76
2021/06/23 08:38:56;;;;;;;21.02;8.73;;;;;;;34.24;37.93;99953.19;5093311;28;20132;-76
2021/06/23 08:41:26;;;;;;;20.10;8.75;;;;;;;33.99;38.08;99959.19;5092936;28;20048;-76
2021/06/23 08:43:56;;;;;;;21.52;9.07;;;;;;;34.13;38.44;99957.75;5093017;28;20462;-76
2021/06/23 08:46:25;;;;;;;20.75;8.90;;;;;;;34.20;37.25;99954.81;5093213;28;20040;-76
2021/06/23 08:48:55;;;;;;;21.17;8.52;;;;;;;34.08;37.86;99960.44;5093148;28;20089;-76
2021/06/23 08:51:26;;;;;;;21.58;8.75;;;;;;;33.98;37.71;99954.75;5092817;28;20130;-76
2021/06/23 08:53:56;;;;;;;21.17;8.48;;;;;;;34.04;38.19;99967.56;5093082;28;20093;-76
2021/06/23 08:56:24;;;;;;;18.10;7.65;;;;;;;34.05;36.68;99965.63;5092978;28;20046;-76
2021/06/23 08:58:52;;;;;;;24.17;8.55;;;;;;;34.07;37.03;99969.84;5093025;28;20051;-76
2021/06/23 09:01:21;;;;;;;20.58;6.90;;;;;;;34.26;36.56;99966.78;5093020;28;20054;-76
2021/06/23 09:04:07;;;;;;;24.20;7.95;;;;;;;34.45;36.02;99965.41;5092616;28;20047;-76
2021/06/23 09:06:49;;;;;;;18.30;7.75;;;;;;;34.61;35.82;99964.53;5092647;28;20055;-76
2021/06/23 09:09:24;;;;;;;20.50;7.63;;;;;;;34.67;35.65;99969.06;5093256;28;20040;-76
2021/06/23 09:11:54;;;;;;;19.60;7.70;;;;;;;34.53;34.88;99973.28;5093001;28;20048;-76
2021/06/23 09:14:24;;;;;;;23.23;8.00;;;;;;;34.36;35.14;99967.78;5092847;28;20408;-76
2021/06/23 09:17:11;;;;;;;21.88;7.53;;;;;;;34.48;35.20;99964.94;5092811;28;20425;-76
2021/06/23 09:19:52;;;;;;;21.65;7.22;;;;;;;34.65;34.41;99968.50;5092748;28;20070;-76
2021/06/23 09:22:34;;;;;;;15.02;6.53;;;;;;;34.49;34.46;99966.59;5092766;28;20047;-75
2021/06/23 09:25:22;;;;;;;17.13;5.63;;;;;;;34.51;33.03;99966.34;5092698;28;20414;-75
2021/06/23 09:27:54;;;;;;;20.10;6.32;;;;;;;34.81;31.96;99974.22;5092757;28;20127;-76
2021/06/23 09:30:25;;;;;;;17.40;5.43;;;;;;;34.59;32.06;99969.50;5074509;28;20533;-75
2021/06/23 09:33:06;;;;;;;19.67;5.70;;;;;;;34.60;32.55;99976.72;5092707;28;20040;-76
2021/06/23 09:35:36;;;;;;;20.25;5.80;;;;;;;34.34;32.98;99977.41;5092742;28;20103;-76
2021/06/23 09:38:05;;;;;;;19.67;5.88;;;;;;;34.31;32.48;99980.72;5092533;28;20553;-74
2021/06/23 09:40:42;;;;;;;18.42;5.32;;;;;;;34.38;33.18;99975.84;5092471;28;20070;-76
2021/06/23 09:43:11;;;;;;;19.50;5.45;;;;;;;34.65;31.35;99978.72;5092710;28;20069;-75
2021/06/23 09:45:40;;;;;;;16.13;5.38;;;;;;;34.41;31.25;99981.72;5092595;28;20083;-75
2021/06/23 09:48:09;;;;;;;15.95;5.22;;;;;;;34.27;31.46;99974.00;5092502;28;20048;-75
2021/06/23 09:50:38;;;;;;;21.35;5.55;;;;;;;34.39;31.03;99966.47;5092148;28;20528;-76
2021/06/23 09:53:08;;;;;;;18.55;5.28;;;;;;;34.35;32.03;99977.16;5092594;28;20040;-75
2021/06/23 09:55:40;;;;;;;14.25;4.85;;;;;;;34.29;32.24;99980.13;5092166;28;20047;-76
2021/06/23 09:58:11;;;;;;;17.60;5.28;;;;;;;34.26;32.89;99983.38;5092654;28;20036;-75
2021/06/23 10:00:58;;;;;;;23.35;5.38;;;;;;;34.30;31.99;99987.34;5092237;28;20044;-75
2021/06/23 10:03:27;;;;;;;16.50;5.57;;;;;;;34.44;32.18;99985.91;5093675;28;20067;-75
2021/06/23 10:05:56;;;;;;;20.27;4.90;;;;;;;34.78;30.36;99983.03;5096164;28;20139;-75
2021/06/23 10:08:25;;;;;;;18.75;5.18;;;;;;;34.45;31.22;99984.81;5096049;28;20443;-75
2021/06/23 10:10:55;;;;;;;19.27;4.97;;;;;;;34.85;30.12;99976.22;5095776;28;20044;-75
2021/06/23 10:13:23;;;;;;;19.48;4.90;;;;;;;35.09;29.73;99978.72;5095878;28;20086;-75
2021/06/23 10:15:54;;;;;;;12.98;4.45;;;;;;;34.82;30.24;99975.88;5095619;28;20036;-76
2021/06/23 10:18:23;;;;;;;23.10;6.18;;;;;;;35.05;29.96;99978.44;5095874;28;20075;-75
2021/06/23 10:20:54;;;;;;;16.27;4.72;;;;;;;35.42;28.82;99974.94;5095554;28;20044;-76
2021/06/23 10:23:24;;;;;;;18.23;4.85;;;;;;;35.71;28.11;99970.81;5095891;28;20044;-76
2021/06/23 10:25:54;;;;;;;14.02;4.88;;;;;;;35.73;28.22;99976.91;5095425;28;20047;-76
2021/06/23 10:28:28;;;;;;;17.80;5.30;;;;;;;35.75;28.25;99969.16;5095967;28;20123;-76
2021/06/23 10:30:58;;;;;;;20.77;5.60;;;;;;;35.74;28.71;99978.59;5095854;28;20040;-76
2021/06/23 10:33:35;;;;;;;15.05;5.15;;;;;;;35.84;27.72;99978.69;5095520;28;20046;-76
2021/06/23 10:36:04;;;;;;;13.82;4.93;;;;;;;35.58;28.55;99979.53;5095771;28;20067;-75
2021/06/23 10:38:33;;;;;;;22.40;6.30;;;;;;;35.80;28.91;99983.06;5077514;28;20403;-76
2021/06/23 10:41:04;;;;;;;19.05;5.80;;;;;;;35.87;28.62;99982.00;5095576;28;20040;-76
2021/06/23 10:43:32;;;;;;;21.88;5.28;;;;;;;36.01;28.17;99980.50;5095504;28;20375;-76
2021/06/23 10:46:00;;;;;;;16.13;5.60;;;;;;;36.03;28.06;99993.00;5095463;28;20541;-75
2021/06/23 10:48:30;;;;;;;17.23;5.53;;;;;;;35.93;28.00;99976.28;5095251;28;20055;-76
2021/06/23 10:50:58;;;;;;;15.23;5.90;;;;;;;35.98;28.20;99983.78;5095171;28;20448;-76
2021/06/23 10:53:32;;;;;;;17.35;6.25;;;;;;;35.71;28.16;99978.25;5095248;28;20043;-76
2021/06/23 10:56:05;;;;;;;18.92;5.38;;;;;;;35.85;28.59;99980.34;5095352;28;20048;-76
2021/06/23 10:58:36;;;;;;;17.30;5.75;;;;;;;35.95;28.26;99970.47;5094993;28;20071;-76
2021/06/23 11:01:10;;;;;;;18.83;5.13;;;;;;;36.13;27.89;99981.16;5095124;28;20425;-76
2021/06/23 11:04:02;;;;;;;18.95;5.60;;;;;;;36.23;27.94;99972.88;5094767;28;20040;-76
2021/06/23 11:06:44;;;;;;;20.65;5.47;;;;;;;36.30;27.07;99983.75;5076326;28;20063;-75
2021/06/23 11:09:26;;;;;;;15.57;5.13;;;;;;;36.17;27.15;99975.88;5095008;28;20127;-76
2021/06/23 11:11:58;;;;;;;13.85;5.00;;;;;;;36.16;27.66;99977.81;5094611;28;20072;-76
2021/06/23 11:14:32;;;;;;;21.47;5.60;;;;;;;36.33;27.02;99980.44;5094624;28;20040;-75
2021/06/23 11:17:28;;;;;;;20.08;5.20;;;;;;;36.48;26.93;99982.50;5094951;28;20110;-76
2021/06/23 11:19:57;;;;;;;14.95;5.18;;;;;;;36.47;26.90;99980.81;5094415;28;20039;-76
2021/06/23 11:22:34;;;;;;;17.67;5.20;;;;;;;36.25;26.81;99976.22;5094931;28;20131;-76
2021/06/23 11:25:22;;;;;;;14.73;5.32;;;;;;;36.51;27.01;99970.84;5094949;28;20048;-76
2021/06/23 11:28:21;;;;;;;16.88;4.80;;;;;;;36.46;26.05;99968.03;5094325;28;20047;-76
2021/06/23 11:31:06;;;;;;;12.50;5.10;;;;;;;36.35;26.11;99967.97;5093865;28;20475;-75
2021/06/23 11:33:57;;;;;;;13.77;4.93;;;;;;;36.43;26.13;99979.69;5094121;28;20082;-77
2021/06/23 11:36:27;;;;;;;17.63;5.22;;;;;;;36.39;26.96;99984.97;5094135;28;20093;-75
2021/06/23 11:38:56;;;;;;;19.98;5.28;;;;;;;36.54;27.14;99981.41;5093883;28;20494;-75
2021/06/23 11:41:25;;;;;;;16.27;5.38;;;;;;;36.57;26.45;99983.66;5094168;28;20051;-75
2021/06/23 11:43:55;;;;;;;20.25;5.72;;;;;;;36.55;26.92;99983.09;5094025;28;20044;-75
2021/06/23 11:46:24;;;;;;;16.23;5.35;;;;;;;36.55;26.93;99994.19;5094217;28;20126;-75
2021/06/23 11:48:52;;;;;;;16.45;5.68;;;;;;;36.63;26.94;99985.34;5093816;28;20398;-74
2021/06/23 11:51:23;;;;;;;14.07;4.95;;;;;;;36.73;26.47;99996.53;5093915;28;20394;-74
2021/06/23 11:53:51;;;;;;;15.18;5.10;;;;;;;36.79;26.21;99989.06;5093884;28;20039;-75
2021/06/23 11:56:19;;;;;;;13.63;4.63;;;;;;;36.88;25.90;99988.28;5094028;28;20039;-74